createdAt,value
2018-04-16T00:00:25.518Z,100930.39
2018-04-16T00:02:51.603Z,100937.48
2018-04-16T00:05:17.626Z,100944.03
2018-04-16T00:07:43.758Z,100943.02
2018-04-16T00:10:09.837Z,100945.02
2018-04-16T00:12:35.891Z,100950.13
2018-04-16T00:15:01.944Z,100949.99
2018-04-16T00:17:28.024Z,100952.80
2018-04-16T00:19:54.149Z,100946.02
2018-04-16T00:22:20.409Z,100953.48
2018-04-16T00:24:46.457Z,100954.98
2018-04-16T00:27:12.570Z,100950.64
2018-04-16T00:29:38.722Z,100959.17
2018-04-16T00:32:11.743Z,100958.59
2018-04-16T00:34:43.829Z,100950.39
2018-04-16T00:37:15.975Z,100951.40
2018-04-16T00:39:48.124Z,100951.23
2018-04-16T00:42:20.225Z,100956.43
2018-04-16T00:44:52.403Z,100950.98
2018-04-16T00:50:26.173Z,100952.55
2018-04-16T00:52:58.354Z,100955.30
2018-04-16T00:55:30.435Z,100961.53
2018-04-16T00:58:02.529Z,100950.98
2018-04-16T01:00:34.897Z,100956.83
2018-04-16T01:03:07.020Z,100954.81
2018-04-16T01:05:39.224Z,100964.36
2018-04-16T01:08:11.415Z,100964.59
2018-04-16T01:10:43.424Z,100971.34
2018-04-16T01:13:15.458Z,100968.55
2018-04-16T01:15:47.649Z,100963.67
2018-04-16T01:18:19.811Z,100968.09
2018-04-16T01:20:51.970Z,100974.42
2018-04-16T01:23:24.245Z,100972.13
2018-04-16T01:25:56.386Z,100979.39
2018-04-16T01:28:28.531Z,100975.48
2018-04-16T01:31:00.646Z,100980.29
2018-04-16T01:33:32.772Z,100979.50
2018-04-16T01:36:04.885Z,100975.87
2018-04-16T01:38:36.941Z,100980.28
2018-04-16T01:41:08.964Z,100983.30
2018-04-16T01:43:41.073Z,100968.51
2018-04-16T01:46:13.226Z,100982.95
2018-04-16T01:48:45.263Z,100978.91
2018-04-16T01:51:17.368Z,100979.72
2018-04-16T01:56:57.033Z,100973.16
2018-04-16T01:59:29.182Z,100971.18
2018-04-16T02:02:01.274Z,100979.59
2018-04-16T02:04:33.352Z,100982.95
2018-04-16T02:07:05.432Z,100974.73
2018-04-16T02:09:37.476Z,100979.55
2018-04-16T02:12:09.536Z,100975.16
2018-04-16T02:14:41.732Z,100974.78
2018-04-16T02:17:13.879Z,100988.33
2018-04-16T02:19:46.003Z,100990.59
2018-04-16T02:25:23.668Z,101005.41
2018-04-16T02:27:55.841Z,101001.97
2018-04-16T02:30:27.864Z,101013.08
2018-04-16T02:33:00.060Z,101007.63
2018-04-16T02:35:32.213Z,101008.73
2018-04-16T02:38:04.273Z,101001.55
2018-04-16T02:40:36.438Z,101005.82
2018-04-16T02:43:08.420Z,101010.06
2018-04-16T02:45:40.522Z,101015.41
2018-04-16T02:51:12.220Z,101014.64
2018-04-16T02:53:44.286Z,101013.80
2018-04-16T02:56:16.397Z,101011.44
2018-04-16T02:58:48.533Z,101014.68
2018-04-16T03:01:20.718Z,101022.62
2018-04-16T03:03:52.863Z,101021.73
2018-04-16T03:06:24.954Z,101020.28
2018-04-16T03:08:56.993Z,101023.06
2018-04-16T03:11:29.269Z,101022.07
2018-04-16T03:14:01.216Z,101024.79
2018-04-16T03:16:33.288Z,101022.42
2018-04-16T03:19:05.459Z,101025.03
2018-04-16T03:21:37.630Z,101026.40
2018-04-16T03:24:09.708Z,101026.55
2018-04-16T03:26:41.869Z,101033.73
2018-04-16T03:29:13.882Z,101033.97
2018-04-16T03:31:46.762Z,101035.08
2018-04-16T03:34:18.846Z,101041.72
2018-04-16T03:36:50.952Z,101037.64
2018-04-16T03:39:22.905Z,101047.17
2018-04-16T03:41:54.989Z,101049.28
2018-04-16T03:44:27.004Z,101048.66
2018-04-16T03:46:59.047Z,101050.63
2018-04-16T03:49:31.150Z,101054.27
2018-04-16T03:52:12.158Z,101057.39
2018-04-16T03:54:38.232Z,101061.78
2018-04-16T03:57:04.269Z,101063.27
2018-04-16T03:59:30.301Z,101064.33
2018-04-16T04:01:56.360Z,101064.28
2018-04-16T04:04:22.358Z,101068.34
2018-04-16T04:06:48.401Z,101060.09
2018-04-16T04:09:14.549Z,101064.61
2018-04-16T04:11:40.536Z,101066.81
2018-04-16T04:14:06.557Z,101065.70
2018-04-16T04:16:32.701Z,101065.05
2018-04-16T04:18:59.309Z,101069.28
2018-04-16T04:21:25.454Z,101071.13
2018-04-16T04:24:03.546Z,101078.19
2018-04-16T04:26:41.652Z,101075.61
2018-04-16T04:29:19.764Z,101082.64
2018-04-16T04:31:45.789Z,101087.34
2018-04-16T04:34:11.792Z,101084.27
2018-04-16T04:36:37.838Z,101090.80
2018-04-16T04:39:03.959Z,101097.41
2018-04-16T04:41:29.988Z,101093.12
2018-04-16T04:43:56.008Z,101096.92
2018-04-16T04:46:22.027Z,101098.58
2018-04-16T04:48:48.050Z,101100.12
2018-04-16T04:51:14.091Z,101107.87
2018-04-16T04:53:40.169Z,101104.58
2018-04-16T04:56:06.169Z,101107.39
2018-04-16T04:58:32.320Z,101110.80
2018-04-16T05:00:58.343Z,101113.50
2018-04-16T05:03:24.494Z,101117.98
2018-04-16T05:05:50.512Z,101123.67
2018-04-16T05:08:17.480Z,101123.31
2018-04-16T05:10:43.621Z,101123.67
2018-04-16T05:13:09.667Z,101132.10
2018-04-16T05:15:35.692Z,101128.05
2018-04-16T05:18:01.702Z,101136.05
2018-04-16T05:20:27.720Z,101136.67
2018-04-16T05:22:53.733Z,101146.68
2018-04-16T05:25:19.757Z,101150.02
2018-04-16T05:27:45.827Z,101153.25
2018-04-16T05:30:11.904Z,101153.53
2018-04-16T05:32:38.003Z,101153.31
2018-04-16T05:35:04.044Z,101162.23
2018-04-16T05:37:30.125Z,101165.87
2018-04-16T05:39:56.168Z,101167.14
2018-04-16T05:42:22.420Z,101180.51
2018-04-16T05:44:48.506Z,101181.12
2018-04-16T05:47:15.592Z,101186.95
2018-04-16T05:49:41.609Z,101183.31
2018-04-16T05:52:07.636Z,101181.89
2018-04-16T05:54:33.726Z,101188.56
2018-04-16T05:56:59.782Z,101192.13
2018-04-16T05:59:25.786Z,101200.45
2018-04-16T06:01:51.796Z,101206.83
2018-04-16T06:04:17.809Z,101210.97
2018-04-16T06:06:43.842Z,101220.44
2018-04-16T06:09:09.841Z,101222.67
2018-04-16T06:11:35.863Z,101216.98
2018-04-16T06:14:01.867Z,101225.27
2018-04-16T06:16:27.917Z,101226.53
2018-04-16T06:18:53.938Z,101228.57
2018-04-16T06:21:19.977Z,101224.09
2018-04-16T06:23:45.990Z,101227.50
2018-04-16T06:26:12.048Z,101235.12
2018-04-16T06:28:38.089Z,101231.11
2018-04-16T06:31:04.104Z,101240.08
2018-04-16T06:33:30.098Z,101237.91
2018-04-16T06:35:56.213Z,101243.12
2018-04-16T06:38:22.245Z,101244.88
2018-04-16T06:40:48.299Z,101248.66
2018-04-16T06:43:14.428Z,101248.32
2018-04-16T06:45:40.469Z,101254.28
2018-04-16T06:48:06.516Z,101252.84
2018-04-16T06:50:32.510Z,101263.87
2018-04-16T06:52:58.565Z,101259.03
2018-04-16T06:55:24.571Z,101257.91
2018-04-16T06:57:50.577Z,101257.16
2018-04-16T07:00:16.762Z,101264.98
2018-04-16T07:02:42.855Z,101259.06
2018-04-16T07:05:08.870Z,101268.28
2018-04-16T07:07:34.959Z,101263.23
2018-04-16T07:10:01.095Z,101275.78
2018-04-16T07:12:27.219Z,101283.45
2018-04-16T07:14:53.251Z,101289.61
2018-04-16T07:17:19.305Z,101292.52
2018-04-16T07:19:45.453Z,101301.84
2018-04-16T07:22:11.582Z,101302.85
2018-04-16T07:24:37.604Z,101299.48
2018-04-16T07:27:03.628Z,101300.16
2018-04-16T07:29:29.660Z,101295.23
2018-04-16T07:31:55.701Z,101294.67
2018-04-16T07:34:21.704Z,101304.72
2018-04-16T07:36:47.887Z,101302.83
2018-04-16T07:39:13.971Z,101303.15
2018-04-16T07:41:40.016Z,101308.48
2018-04-16T07:44:06.006Z,101318.75
2018-04-16T07:46:32.023Z,101319.53
2018-04-16T07:48:58.056Z,101315.89
2018-04-16T07:51:24.165Z,101324.05
2018-04-16T07:53:50.192Z,101331.70
2018-04-16T07:56:16.259Z,101328.69
2018-04-16T07:58:42.301Z,101328.89
2018-04-16T08:01:08.368Z,101334.22
2018-04-16T08:03:34.389Z,101340.50
2018-04-16T08:06:00.551Z,101338.69
2018-04-16T08:08:27.330Z,101348.50
2018-04-16T08:10:53.410Z,101347.86
2018-04-16T08:13:19.498Z,101351.48
2018-04-16T08:15:45.569Z,101357.17
2018-04-16T08:18:11.602Z,101359.98
2018-04-16T08:20:37.601Z,101372.40
2018-04-16T08:23:03.628Z,101369.84
2018-04-16T08:25:29.645Z,101378.59
2018-04-16T08:27:55.655Z,101378.12
2018-04-16T08:30:21.664Z,101376.02
2018-04-16T08:32:47.673Z,101373.98
2018-04-16T08:35:13.814Z,101376.77
2018-04-16T08:37:39.831Z,101381.19
2018-04-16T08:40:05.881Z,101372.48
2018-04-16T08:42:31.869Z,101382.84
2018-04-16T08:44:57.864Z,101392.75
2018-04-16T08:47:23.935Z,101390.44
2018-04-16T08:49:49.957Z,101389.22
2018-04-16T08:52:15.953Z,101397.92
2018-04-16T08:54:41.966Z,101400.36
2018-04-16T08:57:55.810Z,101398.84
2018-04-16T09:00:28.632Z,101397.55
2018-04-16T09:02:54.752Z,101401.66
2018-04-16T09:05:20.995Z,101400.50
2018-04-16T09:07:47.130Z,101397.06
2018-04-16T09:10:13.240Z,101396.11
2018-04-16T09:12:39.257Z,101401.11
2018-04-16T09:15:05.288Z,101394.00
2018-04-16T09:17:31.401Z,101399.59
2018-04-16T09:19:57.475Z,101398.60
2018-04-16T09:22:23.524Z,101395.46
2018-04-16T09:24:49.508Z,101405.09
2018-04-16T09:27:15.583Z,101406.20
2018-04-16T09:29:41.688Z,101413.59
2018-04-16T09:32:07.704Z,101417.74
2018-04-16T09:34:33.764Z,101419.97
2018-04-16T09:36:59.830Z,101424.11
2018-04-16T09:39:25.842Z,101424.45
2018-04-16T09:41:51.885Z,101424.94
2018-04-16T09:44:17.964Z,101432.73
2018-04-16T09:46:43.976Z,101436.84
2018-04-16T09:49:10.060Z,101434.65
2018-04-16T09:51:36.142Z,101447.00
2018-04-16T09:54:02.169Z,101442.80
2018-04-16T09:56:28.186Z,101443.18
2018-04-16T09:58:54.259Z,101444.84
2018-04-16T10:01:20.331Z,101447.88
2018-04-16T10:03:46.351Z,101457.34
2018-04-16T10:06:12.406Z,101455.17
2018-04-16T10:08:38.418Z,101448.81
2018-04-16T10:11:04.532Z,101456.85
2018-04-16T10:13:30.561Z,101457.31
2018-04-16T10:15:56.576Z,101461.64
2018-04-16T10:18:22.682Z,101469.70
2018-04-16T10:20:48.807Z,101466.77
2018-04-16T10:23:14.831Z,101470.46
2018-04-16T10:25:40.860Z,101471.37
2018-04-16T10:28:06.938Z,101475.78
2018-04-16T10:30:33.096Z,101486.91
2018-04-16T10:32:59.165Z,101485.77
2018-04-16T10:35:25.188Z,101491.52
2018-04-16T10:37:51.253Z,101491.65
2018-04-16T10:40:17.454Z,101484.48
2018-04-16T10:42:43.470Z,101492.10
2018-04-16T10:45:09.530Z,101502.64
2018-04-16T10:47:35.600Z,101498.90
2018-04-16T10:50:01.676Z,101500.44
2018-04-16T10:52:27.714Z,101508.20
2018-04-16T10:54:53.747Z,101506.05
2018-04-16T10:57:19.815Z,101509.28
2018-04-16T10:59:45.848Z,101512.87
2018-04-16T11:02:11.904Z,101505.07
2018-04-16T11:04:37.989Z,101503.27
2018-04-16T11:07:03.999Z,101509.55
2018-04-16T11:09:30.024Z,101505.95
2018-04-16T11:11:56.012Z,101500.47
2018-04-16T11:14:22.065Z,101503.36
2018-04-16T11:16:48.153Z,101513.31
2018-04-16T11:19:14.211Z,101509.81
2018-04-16T11:21:40.194Z,101520.79
2018-04-16T11:24:06.256Z,101514.45
2018-04-16T11:26:32.372Z,101519.94
2018-04-16T11:28:58.441Z,101533.80
2018-04-16T11:31:24.579Z,101524.03
2018-04-16T11:33:50.700Z,101524.98
2018-04-16T11:36:16.852Z,101531.11
2018-04-16T11:38:42.875Z,101528.30
2018-04-16T11:41:09.003Z,101539.86
2018-04-16T11:43:35.132Z,101534.55
2018-04-16T11:46:01.170Z,101540.09
2018-04-16T11:48:27.243Z,101549.24
2018-04-16T11:50:53.380Z,101540.10
2018-04-16T11:53:19.500Z,101545.33
2018-04-16T11:55:45.592Z,101551.66
2018-04-16T11:58:11.649Z,101550.47
2018-04-16T12:00:37.739Z,101554.84
2018-04-16T12:03:03.777Z,101549.02
2018-04-16T12:05:29.806Z,101549.45
2018-04-16T12:07:55.831Z,101559.91
2018-04-16T12:10:21.937Z,101554.47
2018-04-16T12:12:47.952Z,101557.86
2018-04-16T12:15:13.976Z,101559.19
2018-04-16T12:17:40.022Z,101568.68
2018-04-16T12:20:06.079Z,101559.28
2018-04-16T12:22:32.154Z,101554.98
2018-04-16T12:24:58.148Z,101562.15
2018-04-16T12:27:24.181Z,101558.63
2018-04-16T12:29:50.184Z,101552.47
2018-04-16T12:32:16.200Z,101547.90
2018-04-16T12:34:42.243Z,101545.91
2018-04-16T12:37:08.229Z,101550.27
2018-04-16T12:39:34.294Z,101558.11
2018-04-16T12:42:00.324Z,101553.36
2018-04-16T12:44:26.417Z,101563.55
2018-04-16T12:46:52.428Z,101568.01
2018-04-16T12:49:18.460Z,101570.20
2018-04-16T12:51:44.624Z,101575.80
2018-04-16T12:54:10.734Z,101575.37
2018-04-16T12:56:36.758Z,101582.78
2018-04-16T12:59:02.793Z,101582.34
2018-04-16T13:01:28.975Z,101585.69
2018-04-16T13:03:55.033Z,101587.33
2018-04-16T13:06:21.156Z,101594.56
2018-04-16T13:08:47.240Z,101595.22
2018-04-16T13:11:13.486Z,101598.64
2018-04-16T13:13:39.552Z,101604.23
2018-04-16T13:16:05.741Z,101600.67
2018-04-16T13:18:31.783Z,101600.90
2018-04-16T13:20:57.883Z,101596.88
2018-04-16T13:23:23.929Z,101596.45
2018-04-16T13:25:49.946Z,101598.67
2018-04-16T13:28:15.981Z,101597.16
2018-04-16T13:30:42.007Z,101596.80
2018-04-16T13:33:08.016Z,101597.34
2018-04-16T13:35:34.152Z,101600.63
2018-04-16T13:38:00.178Z,101601.74
2018-04-16T13:40:26.161Z,101611.61
2018-04-16T13:42:52.247Z,101611.20
2018-04-16T13:45:18.344Z,101604.02
2018-04-16T13:47:44.349Z,101619.18
2018-04-16T13:50:10.380Z,101619.67
2018-04-16T13:52:36.378Z,101622.15
2018-04-16T13:55:02.411Z,101632.73
2018-04-16T13:57:28.441Z,101632.08
2018-04-16T13:59:54.502Z,101624.61
2018-04-16T14:02:20.513Z,101618.63
2018-04-16T14:04:46.622Z,101623.00
2018-04-16T14:07:12.809Z,101622.03
2018-04-16T14:09:38.834Z,101623.92
2018-04-16T14:12:04.853Z,101626.42
2018-04-16T14:14:30.948Z,101631.97
2018-04-16T14:16:57.043Z,101632.12
2018-04-16T14:19:23.115Z,101636.42
2018-04-16T14:21:49.137Z,101631.68
2018-04-16T14:24:15.311Z,101631.31
2018-04-16T14:26:41.373Z,101631.20
2018-04-16T14:29:07.445Z,101634.29
2018-04-16T14:31:33.512Z,101636.16
2018-04-16T14:33:59.704Z,101636.83
2018-04-16T14:36:25.743Z,101637.86
2018-04-16T14:38:51.787Z,101637.81
2018-04-16T14:41:17.801Z,101641.51
2018-04-16T14:43:43.820Z,101640.06
2018-04-16T14:46:09.910Z,101641.20
2018-04-16T14:48:35.957Z,101642.51
2018-04-16T14:51:02.013Z,101642.09
2018-04-16T14:53:28.062Z,101647.41
2018-04-16T14:55:54.121Z,101643.52
2018-04-16T14:58:20.132Z,101648.66
2018-04-16T15:00:46.260Z,101647.86
2018-04-16T15:03:12.882Z,101649.78
2018-04-16T15:05:38.948Z,101644.71
2018-04-16T15:08:04.995Z,101652.88
2018-04-16T15:10:31.119Z,101657.17
2018-04-16T15:12:57.168Z,101644.23
2018-04-16T15:15:23.240Z,101649.22
2018-04-16T15:17:49.343Z,101652.28
2018-04-16T15:20:15.383Z,101646.76
2018-04-16T15:22:41.515Z,101654.97
2018-04-16T15:25:07.595Z,101652.66
2018-04-16T15:27:33.654Z,101651.62
2018-04-16T15:29:59.701Z,101655.33
2018-04-16T15:32:26.054Z,101646.48
2018-04-16T15:34:52.077Z,101654.13
2018-04-16T15:37:18.113Z,101646.61
2018-04-16T15:39:44.260Z,101643.98
2018-04-16T15:42:10.321Z,101649.69
2018-04-16T15:44:37.175Z,101652.60
2018-04-16T15:47:03.268Z,101653.24
2018-04-16T15:49:29.398Z,101652.44
2018-04-16T15:51:55.510Z,101652.12
2018-04-16T15:54:21.532Z,101653.71
2018-04-16T15:56:47.669Z,101658.73
2018-04-16T15:59:13.749Z,101659.50
2018-04-16T16:01:39.772Z,101656.86
2018-04-16T16:04:05.761Z,101658.12
2018-04-16T16:06:31.836Z,101659.39
2018-04-16T16:08:57.882Z,101656.50
2018-04-16T16:11:23.861Z,101653.55
2018-04-16T16:13:50.020Z,101650.53
2018-04-16T16:16:16.025Z,101654.45
2018-04-16T16:18:42.083Z,101651.56
2018-04-16T16:21:08.115Z,101644.52
2018-04-16T16:23:34.137Z,101655.31
2018-04-16T16:26:00.144Z,101652.57
2018-04-16T16:28:26.200Z,101654.38
2018-04-16T16:30:52.209Z,101646.83
2018-04-16T16:35:51.580Z,101644.16
2018-04-16T16:38:17.730Z,101646.34
2018-04-16T16:40:43.765Z,101642.73
2018-04-16T16:43:09.859Z,101639.59
2018-04-16T16:45:35.884Z,101639.52
2018-04-16T16:48:01.987Z,101640.08
2018-04-16T16:50:28.040Z,101644.77
2018-04-16T16:52:54.059Z,101644.38
2018-04-16T16:55:20.106Z,101646.27
2018-04-16T16:57:46.141Z,101651.41
2018-04-16T17:00:12.189Z,101656.42
2018-04-16T17:02:38.378Z,101652.39
2018-04-16T17:05:04.440Z,101651.76
2018-04-16T17:07:30.511Z,101664.48
2018-04-16T17:09:56.525Z,101666.84
2018-04-16T17:12:22.714Z,101669.16
2018-04-16T17:14:48.812Z,101670.06
2018-04-16T17:17:14.906Z,101679.38
2018-04-16T17:19:40.973Z,101685.32
2018-04-16T17:22:07.058Z,101688.66
2018-04-16T17:24:33.181Z,101684.37
2018-04-16T17:27:00.187Z,101686.03
2018-04-16T17:29:26.191Z,101699.46
2018-04-16T17:31:52.207Z,101697.48
2018-04-16T17:34:18.297Z,101702.34
2018-04-16T17:36:44.314Z,101702.48
2018-04-16T17:39:10.329Z,101705.55
2018-04-16T17:41:36.403Z,101713.91
2018-04-16T17:44:02.418Z,101717.95
2018-04-16T17:46:28.422Z,101722.28
2018-04-16T17:48:54.453Z,101720.44
2018-04-16T17:51:20.485Z,101721.72
2018-04-16T17:53:46.491Z,101720.88
2018-04-16T17:56:12.507Z,101733.25
2018-04-16T17:58:38.536Z,101730.64
2018-04-16T18:01:04.676Z,101732.42
2018-04-16T18:03:30.810Z,101738.95
2018-04-16T18:05:56.829Z,101743.84
2018-04-16T18:08:22.913Z,101748.55
2018-04-16T18:10:48.936Z,101755.13
2018-04-16T18:13:15.054Z,101753.38
2018-04-16T18:15:41.226Z,101756.72
2018-04-16T18:18:07.342Z,101762.27
2018-04-16T18:20:33.397Z,101762.22
2018-04-16T18:22:59.901Z,101772.63
2018-04-16T18:25:25.939Z,101770.30
2018-04-16T18:27:51.955Z,101773.77
2018-04-16T18:30:18.110Z,101772.95
2018-04-16T18:32:44.188Z,101781.20
2018-04-16T18:35:10.223Z,101785.92
2018-04-16T18:37:36.255Z,101788.95
2018-04-16T18:40:02.271Z,101784.14
2018-04-16T18:42:28.333Z,101789.31
2018-04-16T18:44:55.099Z,101786.91
2018-04-16T18:47:21.262Z,101792.05
2018-04-16T18:49:47.453Z,101790.35
2018-04-16T18:52:13.449Z,101796.76
2018-04-16T18:54:39.519Z,101793.56
2018-04-16T18:57:05.671Z,101805.55
2018-04-16T18:59:31.769Z,101802.39
2018-04-16T19:01:57.782Z,101812.44
2018-04-16T19:04:23.841Z,101808.82
2018-04-16T19:06:49.877Z,101816.69
2018-04-16T19:09:15.968Z,101820.34
2018-04-16T19:11:42.089Z,101819.08
2018-04-16T19:14:08.119Z,101814.13
2018-04-16T19:16:34.235Z,101811.08
2018-04-16T19:19:00.281Z,101815.69
2018-04-16T19:21:32.217Z,101813.77
2018-04-16T19:23:58.240Z,101816.91
2018-04-16T19:26:24.681Z,101818.94
2018-04-16T19:28:50.735Z,101827.42
2018-04-16T19:31:16.813Z,101819.08
2018-04-16T19:33:49.014Z,101823.81
2018-04-16T19:36:16.075Z,101825.61
2018-04-16T19:38:42.108Z,101830.72
2018-04-16T19:41:08.532Z,101835.18
2018-04-16T19:43:35.403Z,101833.58
2018-04-16T19:46:01.757Z,101829.77
2018-04-16T19:48:34.213Z,101834.52
2018-04-16T19:51:00.764Z,101838.23
2018-04-16T19:53:26.840Z,101837.64
2018-04-16T19:55:58.877Z,101845.16
2018-04-16T19:58:24.962Z,101851.63
2018-04-16T20:00:51.154Z,101843.09
2018-04-16T20:03:23.369Z,101847.30
2018-04-16T20:05:49.852Z,101852.95
2018-04-16T20:08:16.104Z,101846.66
2018-04-16T20:10:42.339Z,101851.69
2018-04-16T20:13:08.428Z,101853.46
2018-04-16T20:15:34.662Z,101856.50
2018-04-16T20:18:01.590Z,101860.52
2018-04-16T20:20:27.994Z,101867.50
2018-04-16T20:22:54.236Z,101866.53
2018-04-16T20:25:20.313Z,101866.88
2018-04-16T20:27:46.391Z,101863.18
2018-04-16T20:30:13.685Z,101871.84
2018-04-16T20:32:40.412Z,101872.10
2018-04-16T20:35:06.542Z,101876.65
2018-04-16T20:37:32.610Z,101876.65
2018-04-16T20:39:58.753Z,101879.26
2018-04-16T20:42:24.886Z,101885.14
2018-04-16T20:44:50.926Z,101881.02
2018-04-16T20:47:17.051Z,101883.92
2018-04-16T20:49:43.162Z,101881.98
2018-04-16T20:52:09.273Z,101888.35
2018-04-16T20:54:35.315Z,101886.53
2018-04-16T20:57:01.396Z,101881.80
2018-04-16T20:59:27.587Z,101889.59
2018-04-16T21:01:53.622Z,101891.14
2018-04-16T21:04:19.691Z,101892.96
2018-04-16T21:06:45.749Z,101895.36
2018-04-16T21:09:11.768Z,101900.75
2018-04-16T21:11:37.791Z,101898.63
2018-04-16T21:14:03.817Z,101898.44
2018-04-16T21:16:29.916Z,101902.38
2018-04-16T21:18:55.932Z,101901.58
2018-04-16T21:21:22.012Z,101901.94
2018-04-16T21:23:48.008Z,101911.77
2018-04-16T21:26:14.087Z,101911.28
2018-04-16T21:28:40.130Z,101907.63
2018-04-16T21:31:06.180Z,101908.83
